Terminal Aerodrome Forecast
Issued by NWS

Home | Current Version | Previous Version | Text Only | Print | Product List | Glossary On
Versions: 1 2 3 4 5 6 7 8 9 10 11 12 13 14 15
000
FTUS46 KMTR 271700
TAFMRY
TAF
KMRY 271734Z 2718/2818 29006KT P6SM SCT007
     FM272200 28012G17KT P6SM SCT009
     FM280100 24005KT P6SM FEW004 BKN007
     FM280500 25004KT 4SM BR BKN003 OVC006
     FM281200 26003KT 2SM BR OVC003=

USA.gov is the U.S. government's official web portal to all federal, state and local government web resources and services.